createdAt,value
2023-04-01T00:00:26.389Z,3.20
2023-04-01T00:01:26.415Z,2.50
2023-04-01T00:02:26.517Z,5.00
2023-04-01T00:03:26.633Z,3.40
2023-04-01T00:04:26.348Z,3.40
2023-04-01T00:05:26.497Z,2.10
2023-04-01T00:06:26.321Z,3.40
2023-04-01T00:07:26.311Z,4.10
2023-04-01T00:08:26.310Z,3.50
2023-04-01T00:09:26.284Z,2.20
2023-04-01T00:10:26.270Z,3.10
2023-04-01T00:11:26.318Z,3.80
2023-04-01T00:12:27.235Z,2.70
2023-04-01T00:13:26.239Z,1.90
2023-04-01T00:14:26.235Z,2.40
2023-04-01T00:15:26.225Z,1.30
2023-04-01T00:16:26.220Z,2.40
2023-04-01T00:17:26.257Z,1.90
2023-04-01T00:18:26.238Z,2.00
2023-04-01T00:19:26.189Z,2.50
2023-04-01T00:20:26.168Z,2.60
2023-04-01T00:21:26.172Z,3.00
2023-04-01T00:22:26.146Z,2.40
2023-04-01T00:23:26.155Z,3.10
2023-04-01T00:24:26.159Z,2.90
2023-04-01T00:25:26.112Z,2.70
2023-04-01T00:26:26.098Z,1.00
2023-04-01T00:27:26.111Z,1.70
2023-04-01T00:28:26.083Z,1.80
2023-04-01T00:29:26.110Z,1.90
2023-04-01T00:30:26.077Z,2.30
2023-04-01T00:31:26.052Z,1.40
2023-04-01T00:32:26.060Z,1.30
2023-04-01T00:33:26.022Z,2.70
2023-04-01T00:34:26.051Z,3.30
2023-04-01T00:35:26.020Z,2.20
2023-04-01T00:36:25.992Z,3.10
2023-04-01T00:37:25.998Z,2.30
2023-04-01T00:38:25.969Z,2.20
2023-04-01T00:39:25.974Z,1.30
2023-04-01T00:40:26.004Z,2.90
2023-04-01T00:41:25.944Z,2.00
2023-04-01T00:42:25.973Z,3.00
2023-04-01T00:43:25.912Z,2.20
2023-04-01T00:44:25.942Z,2.20
2023-04-01T00:45:25.910Z,2.90
2023-04-01T00:46:25.958Z,2.40
2023-04-01T00:47:25.871Z,1.30
2023-04-01T00:48:25.879Z,1.90
2023-04-01T00:49:25.856Z,0.70
2023-04-01T00:50:25.856Z,1.30
2023-04-01T00:51:25.894Z,2.70
2023-04-01T00:52:25.842Z,3.30
2023-04-01T00:53:25.811Z,2.00
2023-04-01T00:54:25.802Z,2.50
2023-04-01T00:55:26.790Z,2.50
2023-04-01T00:56:25.789Z,2.10
2023-04-01T00:57:25.797Z,1.70
2023-04-01T00:58:25.763Z,1.30
2023-04-01T00:59:25.748Z,2.20
2023-04-01T01:00:25.783Z,1.50
2023-04-01T01:01:26.891Z,2.70
2023-04-01T01:02:25.853Z,1.70
2023-04-01T01:03:25.793Z,2.30
2023-04-01T01:04:26.391Z,1.70
2023-04-01T01:05:29.389Z,1.80
2023-04-01T01:06:25.668Z,2.10
2023-04-01T01:07:25.682Z,1.00
2023-04-01T01:08:25.655Z,1.60
2023-04-01T01:09:25.668Z,1.30
2023-04-01T01:10:25.676Z,2.20
2023-04-01T01:11:26.672Z,1.30
2023-04-01T01:12:25.591Z,1.70
2023-04-01T01:13:25.597Z,1.30
2023-04-01T01:14:25.569Z,1.90
2023-04-01T01:15:26.520Z,1.30
2023-04-01T01:16:25.645Z,1.70
2023-04-01T01:17:25.606Z,1.80
2023-04-01T01:18:25.519Z,1.90
2023-04-01T01:19:25.517Z,1.10
2023-04-01T01:20:26.880Z,2.10
2023-04-01T01:21:25.486Z,2.40
2023-04-01T01:22:25.550Z,2.30
2023-04-01T01:23:25.468Z,1.40
2023-04-01T01:24:25.457Z,2.50
2023-04-01T01:25:25.468Z,1.40
2023-04-01T01:26:25.444Z,1.50
2023-04-01T01:27:25.540Z,1.20
2023-04-01T01:28:25.441Z,0.80
2023-04-01T01:29:25.396Z,2.50
2023-04-01T01:30:25.396Z,3.10
2023-04-01T01:31:25.530Z,1.30
2023-04-01T01:32:25.751Z,2.00
2023-04-01T01:33:25.392Z,1.20
2023-04-01T01:34:25.369Z,1.40
2023-04-01T01:35:25.329Z,1.40
2023-04-01T01:36:25.344Z,1.00
2023-04-01T01:37:25.313Z,0.70
2023-04-01T01:38:25.363Z,1.70
2023-04-01T01:39:25.283Z,1.90
2023-04-01T01:40:26.289Z,1.20
2023-04-01T01:41:25.286Z,1.80
2023-04-01T01:42:25.310Z,2.30
2023-04-01T01:43:25.333Z,1.40
2023-04-01T01:44:25.237Z,0.60
2023-04-01T01:45:25.294Z,1.70
2023-04-01T01:46:25.276Z,2.20
2023-04-01T01:47:25.273Z,1.20
2023-04-01T01:48:25.219Z,1.20
2023-04-01T01:49:25.191Z,2.00
2023-04-01T01:50:25.212Z,1.30
2023-04-01T01:51:25.163Z,2.50
2023-04-01T01:52:25.153Z,1.40
2023-04-01T01:53:25.146Z,1.30
2023-04-01T01:54:25.147Z,1.80
2023-04-01T01:55:25.136Z,0.80
2023-04-01T01:56:25.106Z,1.30
2023-04-01T01:57:25.150Z,1.70
2023-04-01T01:58:25.085Z,1.70
2023-04-01T01:59:25.066Z,1.70
2023-04-01T02:00:25.227Z,1.30
2023-04-01T02:01:26.070Z,1.20
2023-04-01T02:02:25.041Z,2.00
2023-04-01T02:03:25.076Z,2.20
2023-04-01T02:04:25.079Z,0.80
2023-04-01T02:05:25.797Z,1.60
2023-04-01T02:06:25.004Z,1.00
2023-04-01T02:07:24.999Z,0.90
2023-04-01T02:08:25.213Z,1.80
2023-04-01T02:09:24.988Z,1.60
2023-04-01T02:10:24.949Z,2.00
2023-04-01T02:11:26.430Z,1.60
2023-04-01T02:12:24.972Z,1.70
2023-04-01T02:13:24.916Z,1.90
2023-04-01T02:14:24.913Z,2.60
2023-04-01T02:15:24.891Z,3.20
2023-04-01T02:16:24.958Z,1.50
2023-04-01T02:17:24.895Z,0.90
2023-04-01T02:18:24.897Z,1.60
2023-04-01T02:19:24.846Z,1.10
2023-04-01T02:20:24.882Z,1.40
2023-04-01T02:21:25.785Z,1.30
2023-04-01T02:22:24.877Z,1.90
2023-04-01T02:23:24.809Z,1.70
2023-04-01T02:24:24.885Z,3.10
2023-04-01T02:25:24.779Z,1.40
2023-04-01T02:26:24.799Z,1.80
2023-04-01T02:27:24.772Z,1.90
2023-04-01T02:28:24.756Z,2.10
2023-04-01T02:29:24.768Z,2.50
2023-04-01T02:30:24.764Z,2.60
2023-04-01T02:31:24.875Z,1.60
2023-04-01T02:32:24.760Z,2.40
2023-04-01T02:33:24.678Z,3.10
2023-04-01T02:34:24.692Z,2.00
2023-04-01T02:35:24.675Z,2.00
2023-04-01T02:36:24.709Z,2.20
2023-04-01T02:37:24.646Z,2.30
2023-04-01T02:38:24.675Z,4.80
2023-04-01T02:39:24.859Z,3.30
2023-04-01T02:40:25.260Z,3.70
2023-04-01T02:41:26.065Z,1.90
2023-04-01T02:42:25.405Z,1.60
2023-04-01T02:43:24.655Z,2.20
2023-04-01T02:44:26.028Z,2.70
2023-04-01T02:45:24.585Z,2.90
2023-04-01T02:46:24.606Z,2.40
2023-04-01T02:47:24.568Z,1.10
2023-04-01T02:48:24.539Z,1.20
2023-04-01T02:49:24.660Z,1.50
2023-04-01T02:50:24.827Z,2.70
2023-04-01T02:51:25.484Z,2.30
2023-04-01T02:52:24.872Z,1.70
2023-04-01T02:53:25.343Z,3.50
2023-04-01T02:54:24.474Z,1.30
2023-04-01T02:55:24.490Z,2.00
2023-04-01T02:56:24.444Z,1.50
2023-04-01T02:57:24.440Z,1.90
2023-04-01T02:58:24.419Z,0.90
2023-04-01T02:59:24.537Z,1.30
2023-04-01T03:00:25.854Z,4.30
2023-04-01T03:01:25.264Z,1.70
2023-04-01T03:02:25.909Z,1.20
2023-04-01T03:03:24.481Z,1.70
2023-04-01T03:04:25.808Z,1.80
2023-04-01T03:05:25.555Z,2.20
2023-04-01T03:06:24.347Z,0.80
2023-04-01T03:07:24.328Z,1.40
2023-04-01T03:08:24.307Z,2.00
2023-04-01T03:09:24.321Z,2.00
2023-04-01T03:10:24.291Z,1.50
2023-04-01T03:11:24.965Z,1.00
2023-04-01T03:12:24.736Z,1.40
2023-04-01T03:13:25.268Z,1.80
2023-04-01T03:14:24.259Z,3.30
2023-04-01T03:15:24.271Z,1.40
2023-04-01T03:16:24.287Z,2.00
2023-04-01T03:17:24.258Z,1.20
2023-04-01T03:18:24.203Z,1.40
2023-04-01T03:19:24.205Z,1.90
2023-04-01T03:20:24.567Z,2.50
2023-04-01T03:21:25.646Z,1.10
2023-04-01T03:22:24.528Z,1.60
2023-04-01T03:23:24.164Z,0.90
2023-04-01T03:24:24.144Z,1.20
2023-04-01T03:25:24.113Z,2.30
2023-04-01T03:26:24.141Z,1.60
2023-04-01T03:27:24.157Z,1.40
2023-04-01T03:28:24.111Z,2.30
2023-04-01T03:29:24.208Z,2.50
2023-04-01T03:30:24.094Z,1.80
2023-04-01T03:31:24.235Z,1.90
2023-04-01T03:32:24.093Z,1.60
2023-04-01T03:33:24.030Z,5.00
2023-04-01T03:34:24.041Z,6.30
2023-04-01T03:35:24.034Z,3.80
2023-04-01T03:36:24.073Z,1.20
2023-04-01T03:37:24.015Z,1.30
2023-04-01T03:38:23.985Z,2.50
2023-04-01T03:39:23.963Z,1.90
2023-04-01T03:40:23.986Z,1.10
2023-04-01T03:41:23.975Z,1.90
2023-04-01T03:42:24.777Z,1.30
2023-04-01T03:43:24.008Z,1.40
2023-04-01T03:44:24.754Z,1.40
2023-04-01T03:45:23.916Z,1.20
2023-04-01T03:46:23.957Z,2.20
2023-04-01T03:47:23.932Z,1.40
2023-04-01T03:48:23.865Z,2.00
2023-04-01T03:49:24.833Z,1.30
2023-04-01T03:50:23.894Z,1.30
2023-04-01T03:51:23.865Z,1.00
2023-04-01T03:52:23.835Z,2.20
2023-04-01T03:53:23.818Z,1.00
2023-04-01T03:54:24.181Z,2.50
2023-04-01T03:55:23.804Z,1.70
2023-04-01T03:56:23.827Z,1.60
2023-04-01T03:57:23.938Z,1.60
2023-04-01T03:58:23.790Z,1.20
2023-04-01T03:59:23.787Z,1.90
2023-04-01T04:00:23.783Z,1.70
2023-04-01T04:01:25.187Z,1.10
2023-04-01T04:02:24.286Z,1.30
2023-04-01T04:03:23.795Z,0.80
2023-04-01T04:04:23.776Z,1.00
2023-04-01T04:05:23.691Z,1.40
2023-04-01T04:06:23.738Z,1.70
2023-04-01T04:07:23.692Z,2.00
2023-04-01T04:08:23.885Z,1.60
2023-04-01T04:09:23.650Z,1.50
2023-04-01T04:10:23.662Z,1.50
2023-04-01T04:11:25.082Z,1.00
2023-04-01T04:12:23.609Z,1.40
2023-04-01T04:13:23.675Z,1.40
2023-04-01T04:14:23.603Z,1.40
2023-04-01T04:15:23.591Z,0.80
2023-04-01T04:16:23.683Z,1.00
2023-04-01T04:17:23.664Z,1.00
2023-04-01T04:18:23.536Z,1.20
2023-04-01T04:19:23.584Z,1.10
2023-04-01T04:20:23.543Z,1.50
2023-04-01T04:21:24.468Z,2.00
2023-04-01T04:22:23.526Z,1.30
2023-04-01T04:23:23.518Z,1.50
2023-04-01T04:24:23.477Z,1.50
2023-04-01T04:25:23.486Z,0.80
2023-04-01T04:26:24.936Z,1.20
2023-04-01T04:27:23.435Z,1.20
2023-04-01T04:28:23.446Z,1.00
2023-04-01T04:29:23.424Z,1.70
2023-04-01T04:30:24.406Z,1.30
2023-04-01T04:31:24.413Z,1.00
2023-04-01T04:32:23.491Z,1.00
2023-04-01T04:33:23.410Z,1.20
2023-04-01T04:34:23.389Z,1.50
2023-04-01T04:35:23.383Z,1.10
2023-04-01T04:36:23.388Z,1.20
2023-04-01T04:37:23.328Z,1.40
2023-04-01T04:38:23.308Z,1.50
2023-04-01T04:39:23.313Z,1.50
2023-04-01T04:40:25.302Z,1.50
2023-04-01T04:41:23.460Z,1.30
2023-04-01T04:42:23.321Z,1.90
2023-04-01T04:43:23.272Z,1.40
2023-04-01T04:44:23.270Z,0.90
2023-04-01T04:45:23.238Z,1.00
2023-04-01T04:46:23.270Z,1.00
2023-04-01T04:47:23.245Z,1.10
2023-04-01T04:48:23.219Z,1.00
2023-04-01T04:49:23.229Z,1.10
2023-04-01T04:50:24.137Z,2.60
2023-04-01T04:51:23.171Z,1.10
2023-04-01T04:52:23.162Z,0.90
2023-04-01T04:53:24.640Z,0.90
2023-04-01T04:54:23.163Z,1.60
2023-04-01T04:55:23.174Z,1.20
2023-04-01T04:56:23.108Z,2.20
2023-04-01T04:57:23.176Z,1.00
2023-04-01T04:58:23.112Z,1.10
2023-04-01T04:59:23.108Z,1.30
2023-04-01T05:00:24.081Z,2.00
2023-04-01T05:01:24.017Z,1.60
2023-04-01T05:02:24.590Z,2.20
2023-04-01T05:03:23.186Z,1.20
2023-04-01T05:04:23.024Z,1.50
2023-04-01T05:05:23.103Z,1.20
2023-04-01T05:06:23.592Z,1.30
2023-04-01T05:07:23.000Z,2.70
2023-04-01T05:08:23.102Z,1.40
2023-04-01T05:09:23.003Z,1.60
2023-04-01T05:10:22.987Z,1.20
2023-04-01T05:11:23.417Z,2.10
2023-04-01T05:12:22.980Z,2.60
2023-04-01T05:13:22.935Z,1.30
2023-04-01T05:14:22.925Z,2.80
2023-04-01T05:15:22.922Z,1.20
2023-04-01T05:16:22.917Z,1.30
2023-04-01T05:17:23.010Z,1.90
2023-04-01T05:18:22.884Z,1.50
2023-04-01T05:19:22.865Z,1.50
2023-04-01T05:20:22.865Z,1.80
2023-04-01T05:21:22.840Z,1.50
2023-04-01T05:22:22.876Z,1.70
2023-04-01T05:23:22.834Z,2.30
2023-04-01T05:24:22.806Z,3.40
2023-04-01T05:25:22.790Z,2.30
2023-04-01T05:26:22.801Z,2.10
2023-04-01T05:27:22.822Z,1.40
2023-04-01T05:28:22.791Z,2.00
2023-04-01T05:29:22.778Z,1.40
2023-04-01T05:30:23.514Z,1.90
2023-04-01T05:31:22.795Z,1.90
2023-04-01T05:32:22.875Z,2.40
2023-04-01T05:33:23.738Z,2.30
2023-04-01T05:34:22.708Z,1.60
2023-04-01T05:35:22.807Z,2.70
2023-04-01T05:36:22.699Z,1.50
2023-04-01T05:37:22.675Z,1.40
2023-04-01T05:38:24.172Z,1.80
2023-04-01T05:39:22.653Z,1.90
2023-04-01T05:40:22.643Z,2.30
2023-04-01T05:41:23.625Z,1.50
2023-04-01T05:42:22.594Z,2.00
2023-04-01T05:43:22.608Z,2.00
2023-04-01T05:44:22.579Z,2.30
2023-04-01T05:45:22.623Z,1.80
2023-04-01T05:46:22.622Z,2.20
2023-04-01T05:47:22.626Z,1.80
2023-04-01T05:48:22.590Z,2.60
2023-04-01T05:49:22.528Z,2.20
2023-04-01T05:50:22.533Z,1.90
2023-04-01T05:51:22.531Z,2.00
2023-04-01T05:52:22.493Z,2.00
2023-04-01T05:53:22.491Z,2.60
2023-04-01T05:54:22.491Z,2.00
2023-04-01T05:55:22.492Z,2.10
2023-04-01T05:56:22.492Z,2.10
2023-04-01T05:57:22.469Z,2.40
2023-04-01T05:58:22.481Z,2.10
2023-04-01T05:59:22.498Z,2.70
2023-04-01T06:00:22.421Z,2.00
2023-04-01T06:01:22.508Z,2.30
2023-04-01T06:02:22.452Z,2.10
2023-04-01T06:03:22.496Z,4.40
2023-04-01T06:04:23.925Z,7.60
2023-04-01T06:05:22.378Z,15.60
2023-04-01T06:06:22.406Z,3.60
2023-04-01T06:07:22.343Z,4.00
2023-04-01T06:08:22.339Z,2.30
2023-04-01T06:09:22.305Z,2.80
2023-04-01T06:10:22.308Z,4.00
2023-04-01T06:11:22.289Z,2.10
2023-04-01T06:12:22.287Z,2.40
2023-04-01T06:13:22.272Z,3.50
2023-04-01T06:14:22.290Z,3.30
2023-04-01T06:15:22.274Z,3.00
2023-04-01T06:16:22.271Z,2.50
2023-04-01T06:17:22.249Z,3.90
2023-04-01T06:18:22.211Z,2.70
2023-04-01T06:19:22.204Z,4.20
2023-04-01T06:20:23.167Z,3.10
2023-04-01T06:21:22.179Z,3.20
2023-04-01T06:22:22.168Z,2.50
2023-04-01T06:23:22.199Z,2.90
2023-04-01T06:24:22.122Z,4.10
2023-04-01T06:25:22.169Z,3.50
2023-04-01T06:26:22.108Z,3.70
2023-04-01T06:27:22.140Z,3.40
2023-04-01T06:28:22.112Z,3.10
2023-04-01T06:29:22.118Z,3.70
2023-04-01T06:30:22.083Z,3.40
2023-04-01T06:31:23.654Z,3.40
2023-04-01T06:32:22.267Z,4.40
2023-04-01T06:33:22.063Z,3.70
2023-04-01T06:34:22.054Z,3.30
2023-04-01T06:35:22.025Z,3.10
2023-04-01T06:36:22.024Z,11.70
2023-04-01T06:37:22.023Z,9.10
2023-04-01T06:38:21.967Z,3.40
2023-04-01T06:39:21.987Z,6.90
2023-04-01T06:40:22.006Z,8.30
2023-04-01T06:41:21.976Z,7.00
2023-04-01T06:42:21.957Z,3.80
2023-04-01T06:43:21.927Z,3.00
2023-04-01T06:44:21.924Z,3.70
2023-04-01T06:45:21.924Z,3.20
2023-04-01T06:46:21.972Z,3.70
2023-04-01T06:47:22.060Z,3.20
2023-04-01T06:48:21.899Z,3.20
2023-04-01T06:49:21.863Z,2.90
2023-04-01T06:50:21.877Z,4.00
2023-04-01T06:51:23.352Z,3.10
2023-04-01T06:52:21.888Z,3.40
2023-04-01T06:53:22.813Z,4.10
2023-04-01T06:54:21.842Z,3.20
2023-04-01T06:55:22.902Z,4.00
2023-04-01T06:56:21.800Z,3.60
2023-04-01T06:57:21.860Z,3.90
2023-04-01T06:58:21.763Z,3.50
2023-04-01T06:59:22.783Z,3.80
2023-04-01T07:00:21.767Z,4.60
2023-04-01T07:01:22.764Z,3.60
2023-04-01T07:02:21.740Z,3.70
2023-04-01T07:03:21.725Z,3.10
2023-04-01T07:04:21.817Z,3.70
2023-04-01T07:05:23.173Z,3.40
2023-04-01T07:06:21.793Z,3.90
2023-04-01T07:07:22.699Z,3.50
2023-04-01T07:08:21.663Z,3.50
2023-04-01T07:09:21.648Z,3.90
2023-04-01T07:10:21.677Z,3.90
2023-04-01T07:11:21.658Z,4.30
2023-04-01T07:12:21.619Z,4.10
2023-04-01T07:13:21.601Z,5.40
2023-04-01T07:14:21.587Z,5.70
2023-04-01T07:15:21.579Z,4.70
2023-04-01T07:16:21.639Z,8.00
2023-04-01T07:17:21.658Z,6.90
2023-04-01T07:18:21.607Z,26.30
2023-04-01T07:19:23.005Z,5.80
2023-04-01T07:20:21.607Z,5.10
2023-04-01T07:21:22.489Z,3.70
2023-04-01T07:22:21.494Z,3.50
2023-04-01T07:23:21.506Z,4.40
2023-04-01T07:24:21.491Z,3.70
2023-04-01T07:25:21.462Z,4.00
2023-04-01T07:26:21.447Z,4.50
2023-04-01T07:27:21.541Z,8.30
2023-04-01T07:28:21.466Z,7.00
2023-04-01T07:29:21.413Z,27.80
2023-04-01T07:30:21.468Z,4.50
2023-04-01T07:31:21.417Z,3.00
2023-04-01T07:32:21.430Z,3.30
2023-04-01T07:33:22.371Z,3.30
2023-04-01T07:34:21.396Z,3.30
2023-04-01T07:35:21.388Z,3.20
2023-04-01T07:36:21.384Z,3.10
2023-04-01T07:37:21.319Z,3.30
2023-04-01T07:38:21.354Z,3.30
2023-04-01T07:39:21.311Z,3.30
2023-04-01T07:40:21.333Z,2.80
2023-04-01T07:41:21.490Z,3.80
2023-04-01T07:42:21.327Z,2.70
2023-04-01T07:43:21.258Z,2.50
2023-04-01T07:44:21.257Z,3.60
2023-04-01T07:45:21.241Z,2.50
2023-04-01T07:46:22.230Z,2.60
2023-04-01T07:47:21.220Z,2.50
2023-04-01T07:48:21.224Z,2.50
2023-04-01T07:49:21.266Z,2.90
2023-04-01T07:50:21.190Z,2.50
2023-04-01T07:51:21.172Z,2.60
2023-04-01T07:52:21.187Z,2.20
2023-04-01T07:53:21.196Z,2.80
2023-04-01T07:54:21.134Z,3.30
2023-04-01T07:55:21.133Z,2.40
2023-04-01T07:56:21.130Z,2.80
2023-04-01T07:57:21.153Z,3.50
2023-04-01T07:58:21.078Z,3.80
2023-04-01T07:59:22.078Z,4.30
2023-04-01T08:00:21.099Z,3.70
2023-04-01T08:01:22.025Z,2.70
2023-04-01T08:02:21.224Z,3.20
2023-04-01T08:03:21.182Z,3.20
2023-04-01T08:04:21.404Z,3.10
2023-04-01T08:05:21.232Z,3.50
2023-04-01T08:06:22.528Z,4.10
2023-04-01T08:07:21.021Z,3.40
2023-04-01T08:08:21.012Z,3.10
2023-04-01T08:09:20.985Z,3.80
2023-04-01T08:10:20.957Z,3.40
2023-04-01T08:11:20.970Z,4.10
2023-04-01T08:12:21.946Z,3.70
2023-04-01T08:13:20.957Z,4.10
2023-04-01T08:14:20.961Z,4.10
2023-04-01T08:15:20.916Z,4.90
2023-04-01T08:16:20.934Z,4.30
2023-04-01T08:17:20.933Z,3.80
2023-04-01T08:18:20.876Z,3.40
2023-04-01T08:19:20.992Z,3.30
2023-04-01T08:20:20.858Z,3.60
2023-04-01T08:21:20.831Z,4.20
2023-04-01T08:22:20.852Z,3.30
2023-04-01T08:23:20.839Z,3.00
2023-04-01T08:24:22.578Z,3.30
2023-04-01T08:25:20.860Z,3.20
2023-04-01T08:26:20.772Z,3.30
2023-04-01T08:27:20.771Z,3.30
2023-04-01T08:28:20.764Z,3.10
2023-04-01T08:29:20.730Z,3.10
2023-04-01T08:30:20.754Z,2.80
2023-04-01T08:31:20.770Z,3.30
2023-04-01T08:32:20.713Z,3.70
2023-04-01T08:33:20.708Z,2.50
2023-04-01T08:34:20.727Z,2.60
2023-04-01T08:35:21.650Z,2.90
2023-04-01T08:36:21.533Z,2.60
2023-04-01T08:37:20.651Z,2.90
2023-04-01T08:38:20.645Z,2.90
2023-04-01T08:39:20.647Z,3.00
2023-04-01T08:40:21.610Z,3.00
2023-04-01T08:41:20.646Z,3.30
2023-04-01T08:42:20.649Z,4.60
2023-04-01T08:43:21.014Z,3.30
2023-04-01T08:44:20.593Z,4.80
2023-04-01T08:45:20.555Z,4.70
2023-04-01T08:46:20.591Z,3.40
2023-04-01T08:47:20.589Z,3.10
2023-04-01T08:48:20.591Z,3.50
2023-04-01T08:49:20.526Z,6.20
2023-04-01T08:50:20.542Z,5.40
2023-04-01T08:51:20.503Z,4.40
2023-04-01T08:52:20.548Z,4.90
2023-04-01T08:53:20.505Z,5.10
2023-04-01T08:54:20.472Z,4.60
2023-04-01T08:55:20.465Z,6.20
2023-04-01T08:56:20.459Z,4.60
2023-04-01T08:57:21.426Z,4.50
2023-04-01T08:58:20.447Z,5.10
2023-04-01T08:59:20.453Z,5.20
2023-04-01T09:00:20.401Z,6.30
2023-04-01T09:01:20.380Z,5.20
2023-04-01T09:02:20.467Z,8.20
2023-04-01T09:03:20.412Z,7.00
2023-04-01T09:04:20.381Z,5.40
2023-04-01T09:05:20.349Z,6.80
2023-04-01T09:06:21.556Z,6.30
2023-04-01T09:07:21.277Z,11.30
2023-04-01T09:08:20.327Z,8.70
2023-04-01T09:09:20.364Z,7.90
2023-04-01T09:10:20.307Z,7.50
2023-04-01T09:11:20.561Z,6.50
2023-04-01T09:12:20.458Z,7.70
2023-04-01T09:13:20.251Z,6.40
2023-04-01T09:14:20.289Z,6.70
2023-04-01T09:15:20.273Z,7.90
2023-04-01T09:16:20.361Z,8.30
2023-04-01T09:17:20.323Z,8.20
2023-04-01T09:18:20.998Z,9.30
2023-04-01T09:19:20.178Z,7.90
2023-04-01T09:20:20.244Z,8.00
2023-04-01T09:21:20.179Z,7.80
2023-04-01T09:22:20.169Z,7.10
2023-04-01T09:23:20.146Z,6.80
2023-04-01T09:24:20.230Z,7.60
2023-04-01T09:25:22.149Z,7.40
2023-04-01T09:26:20.121Z,8.50
2023-04-01T09:27:20.310Z,8.50
2023-04-01T09:28:20.080Z,8.30
2023-04-01T09:29:20.073Z,7.30
2023-04-01T09:30:20.147Z,7.10
2023-04-01T09:31:20.075Z,6.70
2023-04-01T09:32:21.559Z,7.10
2023-04-01T09:33:20.062Z,6.50
2023-04-01T09:34:20.032Z,6.80
2023-04-01T09:35:20.056Z,7.70
2023-04-01T09:36:20.054Z,7.30
2023-04-01T09:37:19.990Z,7.10
2023-04-01T09:38:20.046Z,7.00
2023-04-01T09:39:19.975Z,7.90
2023-04-01T09:40:20.023Z,6.50
2023-04-01T09:41:20.225Z,6.10
2023-04-01T09:42:19.946Z,6.00
2023-04-01T09:43:20.893Z,6.00
2023-04-01T09:44:19.987Z,6.90
2023-04-01T09:45:19.904Z,7.70
2023-04-01T09:46:19.954Z,6.50
2023-04-01T09:47:19.885Z,7.40
2023-04-01T09:48:19.887Z,7.40
2023-04-01T09:49:19.872Z,12.50
2023-04-01T09:50:19.857Z,29.90
2023-04-01T09:51:19.851Z,31.10
2023-04-01T09:52:20.685Z,10.00
2023-04-01T09:53:19.817Z,7.60
2023-04-01T09:54:19.823Z,8.10
2023-04-01T09:55:19.816Z,7.40
2023-04-01T09:56:19.990Z,7.40
2023-04-01T09:57:19.826Z,8.40
2023-04-01T09:58:19.763Z,7.80
2023-04-01T09:59:19.774Z,8.50
2023-04-01T10:00:19.861Z,8.50
2023-04-01T10:01:19.773Z,9.90
2023-04-01T10:02:19.836Z,9.60
2023-04-01T10:03:19.750Z,8.90
2023-04-01T10:04:19.711Z,9.70
2023-04-01T10:05:19.733Z,8.80
2023-04-01T10:06:19.671Z,8.60
2023-04-01T10:07:21.140Z,9.40
2023-04-01T10:08:21.101Z,9.20
2023-04-01T10:09:20.653Z,10.70
2023-04-01T10:10:19.764Z,9.60
2023-04-01T10:11:20.528Z,11.20
2023-04-01T10:12:19.659Z,10.40
2023-04-01T10:13:20.148Z,12.20
2023-04-01T10:14:21.069Z,12.80
2023-04-01T10:15:19.799Z,12.90
2023-04-01T10:16:19.733Z,11.40
2023-04-01T10:17:19.598Z,9.90
2023-04-01T10:18:19.548Z,11.60
2023-04-01T10:19:21.021Z,12.00
2023-04-01T10:20:19.580Z,11.40
2023-04-01T10:21:19.582Z,9.70
2023-04-01T10:22:19.499Z,10.00
2023-04-01T10:23:19.818Z,10.50
2023-04-01T10:24:20.215Z,9.90
2023-04-01T10:25:19.462Z,12.20
2023-04-01T10:26:19.504Z,11.70
2023-04-01T10:27:19.434Z,10.90
2023-04-01T10:28:20.001Z,11.00
2023-04-01T10:29:19.421Z,10.10
2023-04-01T10:30:19.505Z,10.00
2023-04-01T10:31:19.449Z,10.40
2023-04-01T10:32:20.891Z,9.60
2023-04-01T10:33:19.386Z,10.20
2023-04-01T10:34:19.377Z,10.70
2023-04-01T10:35:19.333Z,10.50
2023-04-01T10:36:19.354Z,10.70
2023-04-01T10:37:19.382Z,11.70
2023-04-01T10:38:19.422Z,11.70
2023-04-01T10:39:19.332Z,10.70
2023-04-01T10:40:19.297Z,16.10
2023-04-01T10:41:19.281Z,25.00
2023-04-01T10:42:20.114Z,29.20
2023-04-01T10:43:19.347Z,25.60
2023-04-01T10:44:20.097Z,21.40
2023-04-01T10:45:19.276Z,18.30
2023-04-01T10:46:19.336Z,12.60
2023-04-01T10:47:19.272Z,12.00
2023-04-01T10:48:19.262Z,9.50
2023-04-01T10:49:19.284Z,11.10
2023-04-01T10:50:21.649Z,9.60
2023-04-01T10:51:19.280Z,9.50
2023-04-01T10:52:19.161Z,11.50
2023-04-01T10:53:19.160Z,10.90
2023-04-01T10:54:19.135Z,12.30
2023-04-01T10:55:20.577Z,17.40
2023-04-01T10:56:19.105Z,31.30
2023-04-01T10:57:19.139Z,36.00
2023-04-01T10:58:19.113Z,22.70
2023-04-01T10:59:19.145Z,16.30
2023-04-01T11:00:19.094Z,12.40
2023-04-01T11:01:19.121Z,10.10
2023-04-01T11:02:20.545Z,11.50
2023-04-01T11:03:19.110Z,11.10
2023-04-01T11:04:19.042Z,9.80
2023-04-01T11:05:20.894Z,10.20
2023-04-01T11:06:20.490Z,9.30
2023-04-01T11:07:18.985Z,11.00
2023-04-01T11:08:19.158Z,10.70
2023-04-01T11:09:20.418Z,8.70
2023-04-01T11:10:18.950Z,9.90
2023-04-01T11:11:19.790Z,7.20
2023-04-01T11:12:18.985Z,8.40
2023-04-01T11:13:18.922Z,9.10
2023-04-01T11:14:19.056Z,9.20
2023-04-01T11:15:19.119Z,8.50
2023-04-01T11:16:19.731Z,9.20
2023-04-01T11:17:18.887Z,9.10
2023-04-01T11:18:18.929Z,9.80
2023-04-01T11:19:19.710Z,9.10
2023-04-01T11:20:19.089Z,9.60
2023-04-01T11:21:18.829Z,8.60
2023-04-01T11:22:18.840Z,9.20
2023-04-01T11:23:18.824Z,9.10
2023-04-01T11:24:18.813Z,8.90
2023-04-01T11:25:18.798Z,8.50
2023-04-01T11:26:18.803Z,9.20
2023-04-01T11:27:18.834Z,10.00
2023-04-01T11:28:18.862Z,9.70
2023-04-01T11:29:18.770Z,9.40
2023-04-01T11:30:19.093Z,9.70
2023-04-01T11:31:18.765Z,9.30
2023-04-01T11:32:18.697Z,9.70
2023-04-01T11:33:20.709Z,10.70
2023-04-01T11:34:18.683Z,9.90
2023-04-01T11:35:18.656Z,8.40
2023-04-01T11:36:18.739Z,9.10
2023-04-01T11:37:18.631Z,8.30
2023-04-01T11:38:18.635Z,8.60
2023-04-01T11:39:18.626Z,8.80
2023-04-01T11:40:18.622Z,8.50
2023-04-01T11:41:18.635Z,8.60
2023-04-01T11:42:18.645Z,9.20
2023-04-01T11:43:33.133Z,9.00
2023-04-01T11:44:25.734Z,10.10
2023-04-01T11:45:19.527Z,8.20
2023-04-01T11:46:18.584Z,7.80
2023-04-01T11:47:19.503Z,9.50
2023-04-01T11:48:18.578Z,8.70
2023-04-01T11:49:18.501Z,8.00
2023-04-01T11:50:18.729Z,8.30
2023-04-01T11:51:18.491Z,6.80
2023-04-01T11:52:19.995Z,7.10
2023-04-01T11:53:18.499Z,6.70
2023-04-01T11:54:18.479Z,7.80
2023-04-01T11:55:18.575Z,7.40
2023-04-01T11:56:18.449Z,6.20
2023-04-01T11:57:18.513Z,6.60
2023-04-01T11:58:18.478Z,7.90
2023-04-01T11:59:18.398Z,6.00
2023-04-01T12:00:18.400Z,6.00
2023-04-01T12:01:18.412Z,9.40
2023-04-01T12:02:21.070Z,8.10
2023-04-01T12:03:18.520Z,7.90
2023-04-01T12:04:18.548Z,7.60
2023-04-01T12:05:18.345Z,8.20
2023-04-01T12:06:18.345Z,7.90
2023-04-01T12:07:18.352Z,7.30
2023-04-01T12:08:18.318Z,7.00
2023-04-01T12:09:18.286Z,6.70
2023-04-01T12:10:18.306Z,6.10
2023-04-01T12:11:18.279Z,6.90
2023-04-01T12:12:18.320Z,6.50
2023-04-01T12:13:18.265Z,7.50
2023-04-01T12:14:18.243Z,6.20
2023-04-01T12:15:19.768Z,6.00
2023-04-01T12:16:18.250Z,7.30
2023-04-01T12:17:18.307Z,7.10
2023-04-01T12:18:19.215Z,7.30
2023-04-01T12:19:18.204Z,7.00
2023-04-01T12:20:18.179Z,8.10
2023-04-01T12:21:18.166Z,10.40
2023-04-01T12:22:18.183Z,8.60
2023-04-01T12:23:18.121Z,11.00
2023-04-01T12:24:18.158Z,10.40
2023-04-01T12:25:18.106Z,12.00
2023-04-01T12:26:18.107Z,11.70
2023-04-01T12:27:18.102Z,11.50
2023-04-01T12:28:18.107Z,9.90
2023-04-01T12:29:18.069Z,9.20
2023-04-01T12:30:18.059Z,8.30
2023-04-01T12:31:18.041Z,9.80
2023-04-01T12:32:18.129Z,9.50
2023-04-01T12:33:18.147Z,10.00
2023-04-01T12:34:18.024Z,9.60
2023-04-01T12:35:18.395Z,10.40
2023-04-01T12:36:18.307Z,10.70
2023-04-01T12:37:18.032Z,11.70
2023-04-01T12:38:19.793Z,13.10
2023-04-01T12:39:18.030Z,13.30
2023-04-01T12:40:19.411Z,10.80
2023-04-01T12:41:21.760Z,11.40
2023-04-01T12:42:17.941Z,13.10
2023-04-01T12:43:17.938Z,11.90
2023-04-01T12:44:19.400Z,14.20
2023-04-01T12:45:17.929Z,13.10
2023-04-01T12:46:17.982Z,13.80
2023-04-01T12:47:17.888Z,12.80
2023-04-01T12:48:17.872Z,14.60
2023-04-01T12:49:17.870Z,13.20
2023-04-01T12:50:17.837Z,13.60
2023-04-01T12:51:17.862Z,12.00
2023-04-01T12:52:18.042Z,12.00
2023-04-01T12:53:17.824Z,13.40
2023-04-01T12:54:17.794Z,14.20
2023-04-01T12:55:17.816Z,12.00
2023-04-01T12:56:17.783Z,10.90
2023-04-01T12:57:17.870Z,8.80
2023-04-01T12:58:17.747Z,8.40
2023-04-01T12:59:17.729Z,9.00
2023-04-01T13:00:17.762Z,8.00
2023-04-01T13:01:17.776Z,9.50
2023-04-01T13:02:17.728Z,13.90
2023-04-01T13:03:17.747Z,17.00
2023-04-01T13:04:17.815Z,11.30
2023-04-01T13:05:17.688Z,14.60
2023-04-01T13:06:19.692Z,12.90
2023-04-01T13:07:17.684Z,10.60
2023-04-01T13:08:17.720Z,11.40
2023-04-01T13:09:17.648Z,11.00
2023-04-01T13:10:17.635Z,11.10
2023-04-01T13:11:17.639Z,10.80
2023-04-01T13:12:17.676Z,10.90
2023-04-01T13:13:17.621Z,10.00
2023-04-01T13:14:29.175Z,10.60
2023-04-01T13:15:18.605Z,8.90